sensor_id;sensor_type;location;lat;lon;timestamp;P1;durP1;ratioP1;P2;durP2;ratioP2
30681;SDS011;17439;48.092;11.842;2023-05-07T00:02:15;6.95;;;2.65;;
30681;SDS011;17439;48.092;11.842;2023-05-07T00:04:42;5.93;;;2.88;;
30681;SDS011;17439;48.092;11.842;2023-05-07T00:07:12;3.65;;;1.98;;
30681;SDS011;17439;48.092;11.842;2023-05-07T00:09:38;3.50;;;1.58;;
30681;SDS011;17439;48.092;11.842;2023-05-07T00:12:05;1.33;;;1.20;;
30681;SDS011;17439;48.092;11.842;2023-05-07T00:14:32;1.50;;;1.40;;
30681;SDS011;17439;48.092;11.842;2023-05-07T00:16:59;2.35;;;1.50;;
30681;SDS011;17439;48.092;11.842;2023-05-07T00:19:26;1.60;;;1.33;;
30681;SDS011;17439;48.092;11.842;2023-05-07T00:21:52;4.05;;;1.95;;
30681;SDS011;17439;48.092;11.842;2023-05-07T00:24:19;1.92;;;1.50;;
30681;SDS011;17439;48.092;11.842;2023-05-07T00:26:46;1.77;;;1.48;;
30681;SDS011;17439;48.092;11.842;2023-05-07T00:29:13;2.47;;;1.90;;
30681;SDS011;17439;48.092;11.842;2023-05-07T00:31:39;2.08;;;1.55;;
30681;SDS011;17439;48.092;11.842;2023-05-07T00:34:06;2.40;;;1.60;;
30681;SDS011;17439;48.092;11.842;2023-05-07T00:36:33;1.85;;;1.30;;
30681;SDS011;17439;48.092;11.842;2023-05-07T00:38:59;2.45;;;1.73;;
30681;SDS011;17439;48.092;11.842;2023-05-07T00:41:27;3.25;;;2.00;;
30681;SDS011;17439;48.092;11.842;2023-05-07T00:43:54;4.18;;;1.92;;
30681;SDS011;17439;48.092;11.842;2023-05-07T00:46:20;5.45;;;1.80;;
30681;SDS011;17439;48.092;11.842;2023-05-07T00:48:47;3.78;;;1.63;;
30681;SDS011;17439;48.092;11.842;2023-05-07T00:51:16;3.45;;;1.85;;
30681;SDS011;17439;48.092;11.842;2023-05-07T00:53:44;2.03;;;1.60;;
30681;SDS011;17439;48.092;11.842;2023-05-07T00:56:11;3.40;;;1.70;;
30681;SDS011;17439;48.092;11.842;2023-05-07T00:58:38;4.35;;;1.35;;
30681;SDS011;17439;48.092;11.842;2023-05-07T01:01:06;2.85;;;2.03;;
30681;SDS011;17439;48.092;11.842;2023-05-07T01:06:28;2.97;;;1.73;;
30681;SDS011;17439;48.092;11.842;2023-05-07T01:08:58;4.30;;;2.22;;
30681;SDS011;17439;48.092;11.842;2023-05-07T01:11:26;3.25;;;1.70;;
30681;SDS011;17439;48.092;11.842;2023-05-07T01:13:53;2.55;;;1.65;;
30681;SDS011;17439;48.092;11.842;2023-05-07T01:16:20;2.70;;;1.65;;
30681;SDS011;17439;48.092;11.842;2023-05-07T01:18:47;2.92;;;1.83;;
30681;SDS011;17439;48.092;11.842;2023-05-07T01:21:15;3.10;;;1.85;;
30681;SDS011;17439;48.092;11.842;2023-05-07T01:23:44;2.40;;;1.67;;
30681;SDS011;17439;48.092;11.842;2023-05-07T01:26:11;1.88;;;1.73;;
30681;SDS011;17439;48.092;11.842;2023-05-07T01:28:38;3.45;;;2.28;;
30681;SDS011;17439;48.092;11.842;2023-05-07T01:31:05;4.10;;;1.58;;
30681;SDS011;17439;48.092;11.842;2023-05-07T01:36:01;2.53;;;1.80;;
30681;SDS011;17439;48.092;11.842;2023-05-07T01:38:30;2.20;;;1.65;;
30681;SDS011;17439;48.092;11.842;2023-05-07T01:40:57;2.53;;;1.60;;
30681;SDS011;17439;48.092;11.842;2023-05-07T01:43:24;3.65;;;1.60;;
30681;SDS011;17439;48.092;11.842;2023-05-07T01:45:51;2.03;;;1.83;;
30681;SDS011;17439;48.092;11.842;2023-05-07T01:48:19;2.33;;;1.77;;
30681;SDS011;17439;48.092;11.842;2023-05-07T01:50:46;6.95;;;1.95;;
30681;SDS011;17439;48.092;11.842;2023-05-07T01:53:14;2.42;;;2.13;;
30681;SDS011;17439;48.092;11.842;2023-05-07T01:55:41;3.45;;;1.80;;
30681;SDS011;17439;48.092;11.842;2023-05-07T01:58:08;4.45;;;2.70;;
30681;SDS011;17439;48.092;11.842;2023-05-07T02:00:34;5.35;;;2.30;;
30681;SDS011;17439;48.092;11.842;2023-05-07T02:03:01;3.58;;;1.80;;
30681;SDS011;17439;48.092;11.842;2023-05-07T02:05:37;3.50;;;1.77;;
30681;SDS011;17439;48.092;11.842;2023-05-07T02:08:28;2.50;;;1.77;;
30681;SDS011;17439;48.092;11.842;2023-05-07T02:10:56;3.17;;;2.00;;
30681;SDS011;17439;48.092;11.842;2023-05-07T02:13:24;4.45;;;2.13;;
30681;SDS011;17439;48.092;11.842;2023-05-07T02:15:51;3.58;;;1.95;;
30681;SDS011;17439;48.092;11.842;2023-05-07T02:18:18;4.93;;;1.98;;
30681;SDS011;17439;48.092;11.842;2023-05-07T02:20:44;3.47;;;2.65;;
30681;SDS011;17439;48.092;11.842;2023-05-07T02:23:11;2.92;;;2.15;;
30681;SDS011;17439;48.092;11.842;2023-05-07T02:25:38;3.60;;;1.80;;
30681;SDS011;17439;48.092;11.842;2023-05-07T02:28:04;2.35;;;1.85;;
30681;SDS011;17439;48.092;11.842;2023-05-07T02:30:50;2.25;;;1.50;;
30681;SDS011;17439;48.092;11.842;2023-05-07T02:33:16;2.65;;;1.80;;
30681;SDS011;17439;48.092;11.842;2023-05-07T02:35:43;2.70;;;1.90;;
30681;SDS011;17439;48.092;11.842;2023-05-07T02:38:12;4.50;;;2.00;;
30681;SDS011;17439;48.092;11.842;2023-05-07T02:40:39;4.45;;;1.80;;
30681;SDS011;17439;48.092;11.842;2023-05-07T02:43:06;1.80;;;1.70;;
30681;SDS011;17439;48.092;11.842;2023-05-07T02:45:34;1.80;;;1.70;;
30681;SDS011;17439;48.092;11.842;2023-05-07T02:48:02;2.83;;;2.17;;
30681;SDS011;17439;48.092;11.842;2023-05-07T02:50:28;3.50;;;2.00;;
30681;SDS011;17439;48.092;11.842;2023-05-07T02:52:55;2.50;;;1.88;;
30681;SDS011;17439;48.092;11.842;2023-05-07T02:55:22;2.53;;;1.52;;
30681;SDS011;17439;48.092;11.842;2023-05-07T02:57:48;4.13;;;2.13;;
30681;SDS011;17439;48.092;11.842;2023-05-07T03:00:16;2.67;;;1.95;;
30681;SDS011;17439;48.092;11.842;2023-05-07T03:03:04;3.30;;;2.17;;
30681;SDS011;17439;48.092;11.842;2023-05-07T03:05:31;3.35;;;2.08;;
30681;SDS011;17439;48.092;11.842;2023-05-07T03:07:57;3.00;;;2.20;;
30681;SDS011;17439;48.092;11.842;2023-05-07T03:10:24;2.00;;;1.58;;
30681;SDS011;17439;48.092;11.842;2023-05-07T03:12:50;1.70;;;1.45;;
30681;SDS011;17439;48.092;11.842;2023-05-07T03:15:17;2.10;;;1.85;;
30681;SDS011;17439;48.092;11.842;2023-05-07T03:17:44;2.20;;;1.60;;
30681;SDS011;17439;48.092;11.842;2023-05-07T03:20:11;2.40;;;2.20;;
30681;SDS011;17439;48.092;11.842;2023-05-07T03:22:39;4.25;;;1.88;;
30681;SDS011;17439;48.092;11.842;2023-05-07T03:25:06;4.05;;;2.17;;
30681;SDS011;17439;48.092;11.842;2023-05-07T03:27:33;3.15;;;1.80;;
30681;SDS011;17439;48.092;11.842;2023-05-07T03:30:00;2.85;;;2.38;;
30681;SDS011;17439;48.092;11.842;2023-05-07T03:32:27;3.15;;;2.30;;
30681;SDS011;17439;48.092;11.842;2023-05-07T03:34:54;3.38;;;2.28;;
30681;SDS011;17439;48.092;11.842;2023-05-07T03:37:21;2.67;;;2.33;;
30681;SDS011;17439;48.092;11.842;2023-05-07T03:39:48;3.92;;;1.90;;
30681;SDS011;17439;48.092;11.842;2023-05-07T03:42:16;3.58;;;1.90;;
30681;SDS011;17439;48.092;11.842;2023-05-07T03:44:42;3.45;;;2.33;;
30681;SDS011;17439;48.092;11.842;2023-05-07T03:47:09;5.95;;;2.08;;
30681;SDS011;17439;48.092;11.842;2023-05-07T03:49:37;3.80;;;1.98;;
30681;SDS011;17439;48.092;11.842;2023-05-07T03:52:04;3.67;;;1.95;;
30681;SDS011;17439;48.092;11.842;2023-05-07T03:54:31;4.25;;;2.13;;
30681;SDS011;17439;48.092;11.842;2023-05-07T03:56:58;2.85;;;2.10;;
30681;SDS011;17439;48.092;11.842;2023-05-07T03:59:25;5.28;;;2.92;;
30681;SDS011;17439;48.092;11.842;2023-05-07T04:01:52;4.45;;;3.22;;
30681;SDS011;17439;48.092;11.842;2023-05-07T04:04:21;2.45;;;2.22;;
30681;SDS011;17439;48.092;11.842;2023-05-07T04:06:48;6.40;;;2.63;;
30681;SDS011;17439;48.092;11.842;2023-05-07T04:09:15;4.20;;;2.28;;
30681;SDS011;17439;48.092;11.842;2023-05-07T04:11:43;5.70;;;2.08;;
30681;SDS011;17439;48.092;11.842;2023-05-07T04:14:10;4.57;;;2.20;;
30681;SDS011;17439;48.092;11.842;2023-05-07T04:16:37;5.70;;;1.93;;
30681;SDS011;17439;48.092;11.842;2023-05-07T04:19:05;3.75;;;2.60;;
30681;SDS011;17439;48.092;11.842;2023-05-07T04:21:33;2.83;;;2.03;;
30681;SDS011;17439;48.092;11.842;2023-05-07T04:24:00;4.85;;;2.60;;
30681;SDS011;17439;48.092;11.842;2023-05-07T04:26:28;4.85;;;2.45;;
30681;SDS011;17439;48.092;11.842;2023-05-07T04:28:55;4.75;;;2.30;;
30681;SDS011;17439;48.092;11.842;2023-05-07T04:31:21;4.35;;;2.45;;
30681;SDS011;17439;48.092;11.842;2023-05-07T04:33:51;4.45;;;2.13;;
30681;SDS011;17439;48.092;11.842;2023-05-07T04:36:18;3.83;;;2.43;;
30681;SDS011;17439;48.092;11.842;2023-05-07T04:38:54;5.82;;;2.60;;
30681;SDS011;17439;48.092;11.842;2023-05-07T04:41:21;3.78;;;2.42;;
30681;SDS011;17439;48.092;11.842;2023-05-07T04:43:48;4.60;;;3.07;;
30681;SDS011;17439;48.092;11.842;2023-05-07T04:48:44;6.00;;;2.57;;
30681;SDS011;17439;48.092;11.842;2023-05-07T04:51:10;4.93;;;2.60;;
30681;SDS011;17439;48.092;11.842;2023-05-07T04:53:37;3.00;;;2.15;;
30681;SDS011;17439;48.092;11.842;2023-05-07T04:56:04;4.13;;;3.15;;
30681;SDS011;17439;48.092;11.842;2023-05-07T04:58:38;4.13;;;2.65;;
30681;SDS011;17439;48.092;11.842;2023-05-07T05:01:05;4.68;;;2.53;;
30681;SDS011;17439;48.092;11.842;2023-05-07T05:03:32;5.63;;;3.22;;
30681;SDS011;17439;48.092;11.842;2023-05-07T05:05:59;3.40;;;2.50;;
30681;SDS011;17439;48.092;11.842;2023-05-07T05:08:30;4.55;;;3.10;;
30681;SDS011;17439;48.092;11.842;2023-05-07T05:10:58;6.43;;;3.70;;
30681;SDS011;17439;48.092;11.842;2023-05-07T05:13:25;6.32;;;3.25;;
30681;SDS011;17439;48.092;11.842;2023-05-07T05:15:52;6.05;;;3.97;;
30681;SDS011;17439;48.092;11.842;2023-05-07T05:18:19;7.55;;;4.00;;
30681;SDS011;17439;48.092;11.842;2023-05-07T05:20:46;4.78;;;3.90;;
30681;SDS011;17439;48.092;11.842;2023-05-07T05:23:12;5.20;;;2.78;;
30681;SDS011;17439;48.092;11.842;2023-05-07T05:25:39;3.35;;;2.70;;
30681;SDS011;17439;48.092;11.842;2023-05-07T05:28:09;5.05;;;3.35;;
30681;SDS011;17439;48.092;11.842;2023-05-07T05:30:36;3.05;;;2.35;;
30681;SDS011;17439;48.092;11.842;2023-05-07T05:33:02;3.50;;;2.65;;
30681;SDS011;17439;48.092;11.842;2023-05-07T05:35:30;3.13;;;1.73;;
30681;SDS011;17439;48.092;11.842;2023-05-07T05:40:24;3.17;;;2.10;;
30681;SDS011;17439;48.092;11.842;2023-05-07T05:42:51;4.57;;;2.00;;
30681;SDS011;17439;48.092;11.842;2023-05-07T05:45:18;3.17;;;2.10;;
30681;SDS011;17439;48.092;11.842;2023-05-07T05:47:45;4.47;;;2.78;;
30681;SDS011;17439;48.092;11.842;2023-05-07T05:50:13;3.80;;;2.92;;
30681;SDS011;17439;48.092;11.842;2023-05-07T05:52:39;3.85;;;2.90;;
30681;SDS011;17439;48.092;11.842;2023-05-07T05:55:06;4.22;;;3.45;;
30681;SDS011;17439;48.092;11.842;2023-05-07T05:57:35;5.80;;;3.30;;
30681;SDS011;17439;48.092;11.842;2023-05-07T06:00:02;7.25;;;4.28;;
30681;SDS011;17439;48.092;11.842;2023-05-07T06:02:32;7.28;;;4.00;;
30681;SDS011;17439;48.092;11.842;2023-05-07T06:04:59;11.75;;;4.68;;
30681;SDS011;17439;48.092;11.842;2023-05-07T06:07:26;5.38;;;3.63;;
30681;SDS011;17439;48.092;11.842;2023-05-07T06:09:54;5.60;;;4.10;;
30681;SDS011;17439;48.092;11.842;2023-05-07T06:12:20;6.72;;;3.10;;
30681;SDS011;17439;48.092;11.842;2023-05-07T06:14:48;6.53;;;3.40;;
30681;SDS011;17439;48.092;11.842;2023-05-07T06:17:15;7.50;;;3.42;;
30681;SDS011;17439;48.092;11.842;2023-05-07T06:19:45;4.13;;;3.00;;
30681;SDS011;17439;48.092;11.842;2023-05-07T06:22:14;3.80;;;2.38;;
30681;SDS011;17439;48.092;11.842;2023-05-07T06:24:41;3.10;;;2.70;;
30681;SDS011;17439;48.092;11.842;2023-05-07T06:27:08;4.23;;;2.80;;
30681;SDS011;17439;48.092;11.842;2023-05-07T06:29:35;4.88;;;2.85;;
30681;SDS011;17439;48.092;11.842;2023-05-07T06:32:07;4.50;;;2.65;;
30681;SDS011;17439;48.092;11.842;2023-05-07T06:34:34;2.83;;;2.20;;
30681;SDS011;17439;48.092;11.842;2023-05-07T06:37:01;3.35;;;2.72;;
30681;SDS011;17439;48.092;11.842;2023-05-07T06:39:42;3.80;;;2.05;;
30681;SDS011;17439;48.092;11.842;2023-05-07T06:42:09;4.00;;;2.88;;
30681;SDS011;17439;48.092;11.842;2023-05-07T06:44:40;5.03;;;2.85;;
30681;SDS011;17439;48.092;11.842;2023-05-07T06:47:10;3.03;;;2.40;;
30681;SDS011;17439;48.092;11.842;2023-05-07T06:49:38;4.25;;;2.53;;
30681;SDS011;17439;48.092;11.842;2023-05-07T06:52:05;3.88;;;2.35;;
30681;SDS011;17439;48.092;11.842;2023-05-07T06:54:32;3.38;;;2.60;;
30681;SDS011;17439;48.092;11.842;2023-05-07T06:56:59;2.57;;;2.33;;
30681;SDS011;17439;48.092;11.842;2023-05-07T06:59:27;5.05;;;2.42;;
30681;SDS011;17439;48.092;11.842;2023-05-07T07:01:54;3.22;;;2.85;;
30681;SDS011;17439;48.092;11.842;2023-05-07T07:04:21;4.43;;;2.75;;
30681;SDS011;17439;48.092;11.842;2023-05-07T07:06:53;4.25;;;2.80;;
30681;SDS011;17439;48.092;11.842;2023-05-07T07:09:20;3.57;;;2.70;;
30681;SDS011;17439;48.092;11.842;2023-05-07T07:11:50;4.93;;;2.95;;
30681;SDS011;17439;48.092;11.842;2023-05-07T07:14:18;4.43;;;3.13;;
30681;SDS011;17439;48.092;11.842;2023-05-07T07:16:48;6.82;;;2.85;;
30681;SDS011;17439;48.092;11.842;2023-05-07T07:19:17;4.05;;;3.15;;
30681;SDS011;17439;48.092;11.842;2023-05-07T07:21:46;5.05;;;2.83;;
30681;SDS011;17439;48.092;11.842;2023-05-07T07:24:14;3.45;;;2.35;;
30681;SDS011;17439;48.092;11.842;2023-05-07T07:26:41;3.75;;;2.17;;
30681;SDS011;17439;48.092;11.842;2023-05-07T07:29:08;2.40;;;2.17;;
30681;SDS011;17439;48.092;11.842;2023-05-07T07:31:34;3.10;;;2.42;;
30681;SDS011;17439;48.092;11.842;2023-05-07T07:34:01;3.70;;;2.50;;
30681;SDS011;17439;48.092;11.842;2023-05-07T07:36:28;6.68;;;2.65;;
30681;SDS011;17439;48.092;11.842;2023-05-07T07:39:10;6.60;;;2.70;;
30681;SDS011;17439;48.092;11.842;2023-05-07T07:41:37;4.75;;;2.85;;
30681;SDS011;17439;48.092;11.842;2023-05-07T07:44:04;4.10;;;2.10;;
30681;SDS011;17439;48.092;11.842;2023-05-07T07:46:31;5.07;;;2.30;;
30681;SDS011;17439;48.092;11.842;2023-05-07T07:48:57;4.20;;;2.75;;
30681;SDS011;17439;48.092;11.842;2023-05-07T07:51:24;3.40;;;2.25;;
30681;SDS011;17439;48.092;11.842;2023-05-07T07:53:51;3.55;;;2.22;;
30681;SDS011;17439;48.092;11.842;2023-05-07T07:56:17;3.13;;;2.42;;
30681;SDS011;17439;48.092;11.842;2023-05-07T07:58:44;6.20;;;2.53;;
30681;SDS011;17439;48.092;11.842;2023-05-07T08:01:11;5.05;;;2.78;;
30681;SDS011;17439;48.092;11.842;2023-05-07T08:03:39;4.80;;;2.25;;
30681;SDS011;17439;48.092;11.842;2023-05-07T08:06:05;3.45;;;2.85;;
30681;SDS011;17439;48.092;11.842;2023-05-07T08:08:34;3.42;;;2.28;;
30681;SDS011;17439;48.092;11.842;2023-05-07T08:11:01;3.75;;;2.60;;
30681;SDS011;17439;48.092;11.842;2023-05-07T08:13:31;2.95;;;2.15;;
30681;SDS011;17439;48.092;11.842;2023-05-07T08:15:58;2.50;;;1.98;;
30681;SDS011;17439;48.092;11.842;2023-05-07T08:18:25;6.45;;;3.25;;
30681;SDS011;17439;48.092;11.842;2023-05-07T08:20:53;4.38;;;2.30;;
30681;SDS011;17439;48.092;11.842;2023-05-07T08:23:22;4.88;;;2.63;;
30681;SDS011;17439;48.092;11.842;2023-05-07T08:25:49;2.85;;;2.00;;
30681;SDS011;17439;48.092;11.842;2023-05-07T08:28:17;4.25;;;2.70;;
30681;SDS011;17439;48.092;11.842;2023-05-07T08:30:44;4.57;;;2.97;;
30681;SDS011;17439;48.092;11.842;2023-05-07T08:33:11;8.15;;;2.40;;
30681;SDS011;17439;48.092;11.842;2023-05-07T08:35:38;4.43;;;2.50;;
30681;SDS011;17439;48.092;11.842;2023-05-07T08:40:39;3.83;;;1.98;;
30681;SDS011;17439;48.092;11.842;2023-05-07T08:43:14;3.67;;;2.13;;
30681;SDS011;17439;48.092;11.842;2023-05-07T08:45:42;2.78;;;2.17;;
30681;SDS011;17439;48.092;11.842;2023-05-07T08:48:15;3.45;;;1.50;;
30681;SDS011;17439;48.092;11.842;2023-05-07T08:50:50;2.25;;;1.73;;
30681;SDS011;17439;48.092;11.842;2023-05-07T08:53:17;3.53;;;2.22;;
30681;SDS011;17439;48.092;11.842;2023-05-07T08:55:44;2.47;;;1.70;;
30681;SDS011;17439;48.092;11.842;2023-05-07T08:58:13;3.42;;;1.70;;
30681;SDS011;17439;48.092;11.842;2023-05-07T09:00:42;6.00;;;2.30;;
30681;SDS011;17439;48.092;11.842;2023-05-07T09:03:10;1.98;;;1.80;;
30681;SDS011;17439;48.092;11.842;2023-05-07T09:05:37;3.60;;;1.90;;
30681;SDS011;17439;48.092;11.842;2023-05-07T09:08:07;6.25;;;1.90;;
30681;SDS011;17439;48.092;11.842;2023-05-07T09:10:35;3.30;;;1.88;;
30681;SDS011;17439;48.092;11.842;2023-05-07T09:13:04;3.75;;;2.45;;
30681;SDS011;17439;48.092;11.842;2023-05-07T09:15:30;3.47;;;1.98;;
30681;SDS011;17439;48.092;11.842;2023-05-07T09:18:01;4.30;;;1.90;;
30681;SDS011;17439;48.092;11.842;2023-05-07T09:20:32;4.18;;;1.95;;
30681;SDS011;17439;48.092;11.842;2023-05-07T09:23:00;6.30;;;2.10;;
30681;SDS011;17439;48.092;11.842;2023-05-07T09:27:56;4.43;;;2.28;;
30681;SDS011;17439;48.092;11.842;2023-05-07T09:30:26;5.47;;;2.57;;
30681;SDS011;17439;48.092;11.842;2023-05-07T09:32:54;2.25;;;1.67;;
30681;SDS011;17439;48.092;11.842;2023-05-07T09:35:21;3.10;;;1.80;;
30681;SDS011;17439;48.092;11.842;2023-05-07T09:37:55;3.13;;;1.50;;
30681;SDS011;17439;48.092;11.842;2023-05-07T09:40:23;1.77;;;1.50;;
30681;SDS011;17439;48.092;11.842;2023-05-07T09:43:08;6.32;;;2.30;;
30681;SDS011;17439;48.092;11.842;2023-05-07T09:45:46;3.33;;;1.88;;
30681;SDS011;17439;48.092;11.842;2023-05-07T09:48:13;5.45;;;2.20;;
30681;SDS011;17439;48.092;11.842;2023-05-07T09:50:48;2.83;;;1.75;;
30681;SDS011;17439;48.092;11.842;2023-05-07T09:53:18;5.65;;;1.38;;
30681;SDS011;17439;48.092;11.842;2023-05-07T09:55:47;2.78;;;1.40;;
30681;SDS011;17439;48.092;11.842;2023-05-07T09:58:15;5.00;;;2.90;;
30681;SDS011;17439;48.092;11.842;2023-05-07T10:00:44;4.35;;;2.08;;
30681;SDS011;17439;48.092;11.842;2023-05-07T10:03:14;1.50;;;1.40;;
30681;SDS011;17439;48.092;11.842;2023-05-07T10:05:51;2.55;;;1.55;;
30681;SDS011;17439;48.092;11.842;2023-05-07T10:08:20;1.92;;;1.25;;
30681;SDS011;17439;48.092;11.842;2023-05-07T10:10:51;3.78;;;1.75;;
30681;SDS011;17439;48.092;11.842;2023-05-07T10:13:22;1.98;;;1.20;;
30681;SDS011;17439;48.092;11.842;2023-05-07T10:15:52;3.58;;;1.80;;
30681;SDS011;17439;48.092;11.842;2023-05-07T10:20:52;3.38;;;1.40;;
30681;SDS011;17439;48.092;11.842;2023-05-07T10:23:23;4.10;;;1.40;;
30681;SDS011;17439;48.092;11.842;2023-05-07T10:25:54;2.47;;;1.70;;
30681;SDS011;17439;48.092;11.842;2023-05-07T10:28:26;2.58;;;1.40;;
30681;SDS011;17439;48.092;11.842;2023-05-07T10:33:46;3.53;;;1.50;;
30681;SDS011;17439;48.092;11.842;2023-05-07T10:36:16;1.38;;;1.20;;
30681;SDS011;17439;48.092;11.842;2023-05-07T10:38:45;3.25;;;1.40;;
30681;SDS011;17439;48.092;11.842;2023-05-07T10:41:12;1.85;;;1.20;;
30681;SDS011;17439;48.092;11.842;2023-05-07T10:43:42;2.42;;;1.70;;
30681;SDS011;17439;48.092;11.842;2023-05-07T10:46:18;6.32;;;1.80;;
30681;SDS011;17439;48.092;11.842;2023-05-07T10:49:07;4.95;;;1.58;;
30681;SDS011;17439;48.092;11.842;2023-05-07T10:51:39;2.53;;;1.13;;
30681;SDS011;17439;48.092;11.842;2023-05-07T10:54:21;3.10;;;1.27;;
30681;SDS011;17439;48.092;11.842;2023-05-07T10:56:55;1.98;;;1.23;;
30681;SDS011;17439;48.092;11.842;2023-05-07T10:59:35;1.73;;;1.17;;
30681;SDS011;17439;48.092;11.842;2023-05-07T11:02:12;1.77;;;1.08;;
30681;SDS011;17439;48.092;11.842;2023-05-07T11:05:18;2.17;;;1.33;;
30681;SDS011;17439;48.092;11.842;2023-05-07T11:07:57;3.78;;;1.40;;
30681;SDS011;17439;48.092;11.842;2023-05-07T11:10:47;2.10;;;1.27;;
30681;SDS011;17439;48.092;11.842;2023-05-07T11:13:42;2.75;;;1.23;;
30681;SDS011;17439;48.092;11.842;2023-05-07T11:16:20;4.47;;;1.35;;
30681;SDS011;17439;48.092;11.842;2023-05-07T11:18:54;3.00;;;1.13;;
30681;SDS011;17439;48.092;11.842;2023-05-07T11:21:38;1.85;;;1.23;;
30681;SDS011;17439;48.092;11.842;2023-05-07T11:24:19;3.60;;;1.77;;
30681;SDS011;17439;48.092;11.842;2023-05-07T11:26:51;6.07;;;1.65;;
30681;SDS011;17439;48.092;11.842;2023-05-07T11:29:21;2.53;;;1.30;;
30681;SDS011;17439;48.092;11.842;2023-05-07T11:31:54;1.17;;;1.08;;
30681;SDS011;17439;48.092;11.842;2023-05-07T11:34:27;3.92;;;1.60;;
30681;SDS011;17439;48.092;11.842;2023-05-07T11:36:56;2.25;;;1.42;;
30681;SDS011;17439;48.092;11.842;2023-05-07T11:39:37;4.70;;;1.58;;
30681;SDS011;17439;48.092;11.842;2023-05-07T11:42:04;2.85;;;1.70;;
30681;SDS011;17439;48.092;11.842;2023-05-07T11:44:43;1.83;;;1.50;;
30681;SDS011;17439;48.092;11.842;2023-05-07T11:47:11;6.35;;;1.70;;
30681;SDS011;17439;48.092;11.842;2023-05-07T11:49:43;4.65;;;2.03;;
30681;SDS011;17439;48.092;11.842;2023-05-07T11:52:10;3.63;;;1.65;;
30681;SDS011;17439;48.092;11.842;2023-05-07T11:54:37;2.33;;;1.88;;
30681;SDS011;17439;48.092;11.842;2023-05-07T11:57:04;2.70;;;1.70;;
30681;SDS011;17439;48.092;11.842;2023-05-07T11:59:37;2.40;;;1.48;;
30681;SDS011;17439;48.092;11.842;2023-05-07T12:02:05;3.03;;;1.70;;
30681;SDS011;17439;48.092;11.842;2023-05-07T12:07:16;4.05;;;1.40;;
30681;SDS011;17439;48.092;11.842;2023-05-07T12:09:46;2.97;;;2.10;;
30681;SDS011;17439;48.092;11.842;2023-05-07T12:12:14;3.92;;;2.47;;
30681;SDS011;17439;48.092;11.842;2023-05-07T12:14:41;2.50;;;1.73;;
30681;SDS011;17439;48.092;11.842;2023-05-07T12:19:36;4.43;;;1.85;;
30681;SDS011;17439;48.092;11.842;2023-05-07T12:22:04;2.40;;;2.20;;
30681;SDS011;17439;48.092;11.842;2023-05-07T12:24:46;3.53;;;2.30;;
30681;SDS011;17439;48.092;11.842;2023-05-07T12:27:15;5.57;;;2.15;;
30681;SDS011;17439;48.092;11.842;2023-05-07T12:29:44;2.50;;;2.03;;
30681;SDS011;17439;48.092;11.842;2023-05-07T12:32:15;2.30;;;1.58;;
30681;SDS011;17439;48.092;11.842;2023-05-07T12:34:46;4.53;;;1.83;;
30681;SDS011;17439;48.092;11.842;2023-05-07T12:37:17;4.05;;;1.70;;
30681;SDS011;17439;48.092;11.842;2023-05-07T12:39:50;3.85;;;1.48;;
30681;SDS011;17439;48.092;11.842;2023-05-07T12:42:39;4.30;;;2.03;;
30681;SDS011;17439;48.092;11.842;2023-05-07T12:45:13;2.33;;;1.85;;
30681;SDS011;17439;48.092;11.842;2023-05-07T12:47:49;3.80;;;1.23;;
30681;SDS011;17439;48.092;11.842;2023-05-07T12:50:16;3.25;;;2.25;;
30681;SDS011;17439;48.092;11.842;2023-05-07T12:52:43;2.10;;;1.77;;
30681;SDS011;17439;48.092;11.842;2023-05-07T12:55:13;1.67;;;1.42;;
30681;SDS011;17439;48.092;11.842;2023-05-07T12:57:42;2.22;;;1.60;;
30681;SDS011;17439;48.092;11.842;2023-05-07T13:00:10;2.80;;;1.50;;
30681;SDS011;17439;48.092;11.842;2023-05-07T13:02:37;1.73;;;1.35;;
30681;SDS011;17439;48.092;11.842;2023-05-07T13:05:06;2.33;;;1.90;;
30681;SDS011;17439;48.092;11.842;2023-05-07T13:07:32;1.85;;;1.65;;
30681;SDS011;17439;48.092;11.842;2023-05-07T13:09:59;3.33;;;1.90;;
30681;SDS011;17439;48.092;11.842;2023-05-07T13:12:26;2.58;;;1.88;;
30681;SDS011;17439;48.092;11.842;2023-05-07T13:14:53;1.67;;;1.30;;
30681;SDS011;17439;48.092;11.842;2023-05-07T13:17:19;2.85;;;1.67;;
30681;SDS011;17439;48.092;11.842;2023-05-07T13:19:46;2.08;;;1.40;;
30681;SDS011;17439;48.092;11.842;2023-05-07T13:22:13;2.42;;;1.60;;
30681;SDS011;17439;48.092;11.842;2023-05-07T13:24:39;2.00;;;1.60;;
30681;SDS011;17439;48.092;11.842;2023-05-07T13:27:06;1.98;;;1.50;;
30681;SDS011;17439;48.092;11.842;2023-05-07T13:29:33;2.80;;;1.58;;
30681;SDS011;17439;48.092;11.842;2023-05-07T13:31:59;3.13;;;1.50;;
30681;SDS011;17439;48.092;11.842;2023-05-07T13:34:26;1.77;;;1.50;;
30681;SDS011;17439;48.092;11.842;2023-05-07T13:36:53;1.60;;;1.25;;
30681;SDS011;17439;48.092;11.842;2023-05-07T13:39:19;2.15;;;1.48;;
30681;SDS011;17439;48.092;11.842;2023-05-07T13:41:46;2.25;;;1.40;;
30681;SDS011;17439;48.092;11.842;2023-05-07T13:44:13;4.28;;;1.50;;
30681;SDS011;17439;48.092;11.842;2023-05-07T13:46:39;1.67;;;1.45;;
30681;SDS011;17439;48.092;11.842;2023-05-07T13:49:06;3.80;;;1.70;;
30681;SDS011;17439;48.092;11.842;2023-05-07T13:51:33;2.63;;;1.60;;
30681;SDS011;17439;48.092;11.842;2023-05-07T13:53:59;2.55;;;1.48;;
30681;SDS011;17439;48.092;11.842;2023-05-07T13:56:26;1.35;;;1.25;;
30681;SDS011;17439;48.092;11.842;2023-05-07T13:58:53;2.35;;;1.10;;
30681;SDS011;17439;48.092;11.842;2023-05-07T14:01:26;1.92;;;1.48;;
30681;SDS011;17439;48.092;11.842;2023-05-07T14:03:52;1.63;;;1.40;;
30681;SDS011;17439;48.092;11.842;2023-05-07T14:06:19;3.22;;;1.40;;
30681;SDS011;17439;48.092;11.842;2023-05-07T14:11:14;2.38;;;1.63;;
30681;SDS011;17439;48.092;11.842;2023-05-07T14:13:40;2.78;;;1.65;;
30681;SDS011;17439;48.092;11.842;2023-05-07T14:16:07;1.50;;;1.40;;
30681;SDS011;17439;48.092;11.842;2023-05-07T14:18:33;4.35;;;1.58;;
30681;SDS011;17439;48.092;11.842;2023-05-07T14:21:00;1.77;;;1.30;;
30681;SDS011;17439;48.092;11.842;2023-05-07T14:23:27;1.60;;;1.23;;
30681;SDS011;17439;48.092;11.842;2023-05-07T14:25:54;1.83;;;1.50;;
30681;SDS011;17439;48.092;11.842;2023-05-07T14:28:20;1.65;;;1.55;;
30681;SDS011;17439;48.092;11.842;2023-05-07T14:30:47;1.50;;;1.40;;
30681;SDS011;17439;48.092;11.842;2023-05-07T14:33:14;2.13;;;1.30;;
30681;SDS011;17439;48.092;11.842;2023-05-07T14:35:41;3.78;;;1.42;;
30681;SDS011;17439;48.092;11.842;2023-05-07T14:38:07;3.47;;;1.55;;
30681;SDS011;17439;48.092;11.842;2023-05-07T14:40:34;1.50;;;1.40;;
30681;SDS011;17439;48.092;11.842;2023-05-07T14:43:01;2.03;;;1.42;;
30681;SDS011;17439;48.092;11.842;2023-05-07T14:45:27;1.85;;;1.52;;
30681;SDS011;17439;48.092;11.842;2023-05-07T14:47:54;1.83;;;1.20;;
30681;SDS011;17439;48.092;11.842;2023-05-07T14:50:21;2.30;;;1.40;;
30681;SDS011;17439;48.092;11.842;2023-05-07T14:52:48;2.13;;;1.10;;
30681;SDS011;17439;48.092;11.842;2023-05-07T14:55:15;1.30;;;1.15;;
30681;SDS011;17439;48.092;11.842;2023-05-07T14:57:41;1.73;;;1.23;;
30681;SDS011;17439;48.092;11.842;2023-05-07T15:00:08;1.85;;;1.20;;
30681;SDS011;17439;48.092;11.842;2023-05-07T15:02:35;4.20;;;1.07;;
30681;SDS011;17439;48.092;11.842;2023-05-07T15:05:05;1.17;;;1.00;;
30681;SDS011;17439;48.092;11.842;2023-05-07T15:07:32;1.70;;;0.93;;
30681;SDS011;17439;48.092;11.842;2023-05-07T15:09:59;3.22;;;1.35;;
30681;SDS011;17439;48.092;11.842;2023-05-07T15:12:26;1.92;;;1.13;;